sensor_id;sensor_type;location;lat;lon;timestamp;temperature;humidity
15156;DHT22;7678;50.058;8.306;2022-12-07T00:01:45;1.90;99.90
15156;DHT22;7678;50.058;8.306;2022-12-07T00:04:16;2.00;99.90
15156;DHT22;7678;50.058;8.306;2022-12-07T00:06:52;2.10;99.90
15156;DHT22;7678;50.058;8.306;2022-12-07T00:09:20;2.20;99.90
15156;DHT22;7678;50.058;8.306;2022-12-07T00:11:49;2.20;99.90
15156;DHT22;7678;50.058;8.306;2022-12-07T00:14:20;2.30;99.90
15156;DHT22;7678;50.058;8.306;2022-12-07T00:16:49;2.40;99.90
15156;DHT22;7678;50.058;8.306;2022-12-07T00:19:18;2.40;99.90
15156;DHT22;7678;50.058;8.306;2022-12-07T00:21:48;2.40;99.90
15156;DHT22;7678;50.058;8.306;2022-12-07T00:24:16;2.40;99.90
15156;DHT22;7678;50.058;8.306;2022-12-07T00:26:44;2.40;99.90
15156;DHT22;7678;50.058;8.306;2022-12-07T00:29:16;2.40;99.90
15156;DHT22;7678;50.058;8.306;2022-12-07T00:31:45;2.40;99.90
15156;DHT22;7678;50.058;8.306;2022-12-07T00:34:15;2.50;99.90
15156;DHT22;7678;50.058;8.306;2022-12-07T00:36:44;2.40;99.90
15156;DHT22;7678;50.058;8.306;2022-12-07T00:39:13;2.40;99.90
15156;DHT22;7678;50.058;8.306;2022-12-07T00:41:42;2.50;99.90
15156;DHT22;7678;50.058;8.306;2022-12-07T00:44:10;2.40;99.90
15156;DHT22;7678;50.058;8.306;2022-12-07T00:46:38;2.30;99.90
15156;DHT22;7678;50.058;8.306;2022-12-07T00:49:05;2.30;99.90
15156;DHT22;7678;50.058;8.306;2022-12-07T00:51:33;2.20;99.90
15156;DHT22;7678;50.058;8.306;2022-12-07T00:54:01;2.10;99.90
15156;DHT22;7678;50.058;8.306;2022-12-07T00:56:31;2.10;99.90
15156;DHT22;7678;50.058;8.306;2022-12-07T00:59:02;2.10;99.90
15156;DHT22;7678;50.058;8.306;2022-12-07T01:01:32;2.10;99.90
15156;DHT22;7678;50.058;8.306;2022-12-07T01:04:01;2.10;99.90
15156;DHT22;7678;50.058;8.306;2022-12-07T01:06:29;2.20;99.90
15156;DHT22;7678;50.058;8.306;2022-12-07T01:08:58;2.20;99.90
15156;DHT22;7678;50.058;8.306;2022-12-07T01:11:28;2.20;99.90
15156;DHT22;7678;50.058;8.306;2022-12-07T01:13:59;2.20;99.90
15156;DHT22;7678;50.058;8.306;2022-12-07T01:16:29;2.20;99.90
15156;DHT22;7678;50.058;8.306;2022-12-07T01:18:59;2.20;99.90
15156;DHT22;7678;50.058;8.306;2022-12-07T01:21:28;2.30;99.90
15156;DHT22;7678;50.058;8.306;2022-12-07T01:23:57;2.20;99.90
15156;DHT22;7678;50.058;8.306;2022-12-07T01:26:26;2.20;99.90
15156;DHT22;7678;50.058;8.306;2022-12-07T01:28:54;2.20;99.90
15156;DHT22;7678;50.058;8.306;2022-12-07T01:31:26;2.20;99.90
15156;DHT22;7678;50.058;8.306;2022-12-07T01:33:56;2.20;99.90
15156;DHT22;7678;50.058;8.306;2022-12-07T01:36:26;2.30;99.90
15156;DHT22;7678;50.058;8.306;2022-12-07T01:38:56;2.30;99.90
15156;DHT22;7678;50.058;8.306;2022-12-07T01:41:29;2.40;99.90
15156;DHT22;7678;50.058;8.306;2022-12-07T01:44:25;2.40;99.90
15156;DHT22;7678;50.058;8.306;2022-12-07T01:46:56;2.40;99.90
15156;DHT22;7678;50.058;8.306;2022-12-07T01:49:31;2.40;99.90
15156;DHT22;7678;50.058;8.306;2022-12-07T01:52:10;2.40;99.90
15156;DHT22;7678;50.058;8.306;2022-12-07T01:54:42;2.40;99.90
15156;DHT22;7678;50.058;8.306;2022-12-07T01:57:11;2.50;99.90
15156;DHT22;7678;50.058;8.306;2022-12-07T01:59:40;2.50;99.90
15156;DHT22;7678;50.058;8.306;2022-12-07T02:02:20;2.50;99.90
15156;DHT22;7678;50.058;8.306;2022-12-07T02:04:52;2.60;99.90
15156;DHT22;7678;50.058;8.306;2022-12-07T02:07:24;2.60;99.90
15156;DHT22;7678;50.058;8.306;2022-12-07T02:09:53;2.60;99.90
15156;DHT22;7678;50.058;8.306;2022-12-07T02:12:22;2.60;99.90
15156;DHT22;7678;50.058;8.306;2022-12-07T02:14:51;2.60;99.90
15156;DHT22;7678;50.058;8.306;2022-12-07T02:17:27;2.60;99.90
15156;DHT22;7678;50.058;8.306;2022-12-07T02:20:17;2.70;99.90
15156;DHT22;7678;50.058;8.306;2022-12-07T02:23:07;2.60;99.90
15156;DHT22;7678;50.058;8.306;2022-12-07T02:29:12;2.70;99.90
15156;DHT22;7678;50.058;8.306;2022-12-07T02:31:46;2.70;99.90
15156;DHT22;7678;50.058;8.306;2022-12-07T02:34:22;2.70;99.90
15156;DHT22;7678;50.058;8.306;2022-12-07T02:36:57;2.70;99.90
15156;DHT22;7678;50.058;8.306;2022-12-07T02:39:31;2.70;99.90
15156;DHT22;7678;50.058;8.306;2022-12-07T02:42:07;2.70;99.90
15156;DHT22;7678;50.058;8.306;2022-12-07T02:44:39;2.80;99.90
15156;DHT22;7678;50.058;8.306;2022-12-07T02:47:13;2.80;99.90
15156;DHT22;7678;50.058;8.306;2022-12-07T02:49:42;2.80;99.90
15156;DHT22;7678;50.058;8.306;2022-12-07T02:52:13;2.80;99.90
15156;DHT22;7678;50.058;8.306;2022-12-07T02:54:40;2.70;99.90
15156;DHT22;7678;50.058;8.306;2022-12-07T02:57:23;2.70;99.90
15156;DHT22;7678;50.058;8.306;2022-12-07T03:00:03;2.70;99.90
15156;DHT22;7678;50.058;8.306;2022-12-07T03:02:39;2.80;99.90
15156;DHT22;7678;50.058;8.306;2022-12-07T03:05:19;2.80;99.90
15156;DHT22;7678;50.058;8.306;2022-12-07T03:07:55;2.80;99.90
15156;DHT22;7678;50.058;8.306;2022-12-07T03:10:33;2.80;99.90
15156;DHT22;7678;50.058;8.306;2022-12-07T03:13:06;2.80;99.90
15156;DHT22;7678;50.058;8.306;2022-12-07T03:15:41;2.90;99.90
15156;DHT22;7678;50.058;8.306;2022-12-07T03:18:13;2.90;99.90
15156;DHT22;7678;50.058;8.306;2022-12-07T03:20:46;2.90;99.90
15156;DHT22;7678;50.058;8.306;2022-12-07T03:23:16;2.90;99.90
15156;DHT22;7678;50.058;8.306;2022-12-07T03:25:48;2.90;99.90
15156;DHT22;7678;50.058;8.306;2022-12-07T03:28:28;2.90;99.90
15156;DHT22;7678;50.058;8.306;2022-12-07T03:31:02;2.90;99.90
15156;DHT22;7678;50.058;8.306;2022-12-07T03:33:36;2.90;99.90
15156;DHT22;7678;50.058;8.306;2022-12-07T03:36:09;3.00;99.90
15156;DHT22;7678;50.058;8.306;2022-12-07T03:38:42;3.00;99.90
15156;DHT22;7678;50.058;8.306;2022-12-07T03:41:16;2.90;99.90
15156;DHT22;7678;50.058;8.306;2022-12-07T03:43:46;3.00;99.90
15156;DHT22;7678;50.058;8.306;2022-12-07T03:46:20;2.90;99.90
15156;DHT22;7678;50.058;8.306;2022-12-07T03:48:56;2.90;99.90
15156;DHT22;7678;50.058;8.306;2022-12-07T03:51:28;2.90;99.90
15156;DHT22;7678;50.058;8.306;2022-12-07T03:54:02;2.90;99.90
15156;DHT22;7678;50.058;8.306;2022-12-07T03:56:34;2.90;99.90
15156;DHT22;7678;50.058;8.306;2022-12-07T03:59:02;2.90;99.90
15156;DHT22;7678;50.058;8.306;2022-12-07T04:01:31;2.90;99.90
15156;DHT22;7678;50.058;8.306;2022-12-07T04:04:02;2.90;99.90
15156;DHT22;7678;50.058;8.306;2022-12-07T04:06:30;2.90;99.90
15156;DHT22;7678;50.058;8.306;2022-12-07T04:08:58;2.90;99.90
15156;DHT22;7678;50.058;8.306;2022-12-07T04:11:26;2.90;99.90
15156;DHT22;7678;50.058;8.306;2022-12-07T04:13:53;2.90;99.90
15156;DHT22;7678;50.058;8.306;2022-12-07T04:16:40;2.90;99.90
15156;DHT22;7678;50.058;8.306;2022-12-07T04:19:10;2.90;99.90
15156;DHT22;7678;50.058;8.306;2022-12-07T04:21:39;2.90;99.90
15156;DHT22;7678;50.058;8.306;2022-12-07T04:24:07;2.90;99.90
15156;DHT22;7678;50.058;8.306;2022-12-07T04:26:35;2.90;99.90
15156;DHT22;7678;50.058;8.306;2022-12-07T04:29:03;2.90;99.90
15156;DHT22;7678;50.058;8.306;2022-12-07T04:31:34;2.90;99.90
15156;DHT22;7678;50.058;8.306;2022-12-07T04:34:04;2.90;99.90
15156;DHT22;7678;50.058;8.306;2022-12-07T04:36:32;2.90;99.90
15156;DHT22;7678;50.058;8.306;2022-12-07T04:39:00;2.90;99.90
15156;DHT22;7678;50.058;8.306;2022-12-07T04:41:30;3.00;99.90
15156;DHT22;7678;50.058;8.306;2022-12-07T04:44:00;2.90;99.90
15156;DHT22;7678;50.058;8.306;2022-12-07T04:46:30;2.90;99.90
15156;DHT22;7678;50.058;8.306;2022-12-07T04:48:58;2.90;99.90
15156;DHT22;7678;50.058;8.306;2022-12-07T04:51:28;2.90;99.90
15156;DHT22;7678;50.058;8.306;2022-12-07T04:53:56;2.90;99.90
15156;DHT22;7678;50.058;8.306;2022-12-07T04:56:24;3.00;99.90
15156;DHT22;7678;50.058;8.306;2022-12-07T04:58:53;3.00;99.90
15156;DHT22;7678;50.058;8.306;2022-12-07T05:01:23;3.00;99.90
15156;DHT22;7678;50.058;8.306;2022-12-07T05:03:52;3.10;99.90
15156;DHT22;7678;50.058;8.306;2022-12-07T05:06:20;3.20;99.90
15156;DHT22;7678;50.058;8.306;2022-12-07T05:08:49;3.20;99.90
15156;DHT22;7678;50.058;8.306;2022-12-07T05:11:18;3.30;99.90
15156;DHT22;7678;50.058;8.306;2022-12-07T05:14:00;3.30;99.90
15156;DHT22;7678;50.058;8.306;2022-12-07T05:16:28;3.30;99.90
15156;DHT22;7678;50.058;8.306;2022-12-07T05:18:56;3.30;99.90
15156;DHT22;7678;50.058;8.306;2022-12-07T05:21:24;3.40;99.90
15156;DHT22;7678;50.058;8.306;2022-12-07T05:23:56;3.40;99.90
15156;DHT22;7678;50.058;8.306;2022-12-07T05:26:24;3.40;99.90
15156;DHT22;7678;50.058;8.306;2022-12-07T05:28:53;3.40;99.90
15156;DHT22;7678;50.058;8.306;2022-12-07T05:31:22;3.40;99.90
15156;DHT22;7678;50.058;8.306;2022-12-07T05:33:51;3.40;99.90
15156;DHT22;7678;50.058;8.306;2022-12-07T05:36:19;3.40;99.90
15156;DHT22;7678;50.058;8.306;2022-12-07T05:38:47;3.40;99.90
15156;DHT22;7678;50.058;8.306;2022-12-07T05:41:18;3.40;99.90
15156;DHT22;7678;50.058;8.306;2022-12-07T05:44:03;3.40;99.90
15156;DHT22;7678;50.058;8.306;2022-12-07T05:46:31;3.50;99.90
15156;DHT22;7678;50.058;8.306;2022-12-07T05:49:00;3.50;99.90
15156;DHT22;7678;50.058;8.306;2022-12-07T05:51:28;3.50;99.90
15156;DHT22;7678;50.058;8.306;2022-12-07T05:53:56;3.40;99.90
15156;DHT22;7678;50.058;8.306;2022-12-07T05:56:26;3.40;99.90
15156;DHT22;7678;50.058;8.306;2022-12-07T05:58:54;3.40;99.90
15156;DHT22;7678;50.058;8.306;2022-12-07T06:01:39;3.40;99.90
15156;DHT22;7678;50.058;8.306;2022-12-07T06:04:08;3.40;99.90
15156;DHT22;7678;50.058;8.306;2022-12-07T06:06:36;3.50;99.90
15156;DHT22;7678;50.058;8.306;2022-12-07T06:09:06;3.50;99.90
15156;DHT22;7678;50.058;8.306;2022-12-07T06:11:35;3.50;99.90
15156;DHT22;7678;50.058;8.306;2022-12-07T06:14:21;3.50;99.90
15156;DHT22;7678;50.058;8.306;2022-12-07T06:16:49;3.50;99.90
15156;DHT22;7678;50.058;8.306;2022-12-07T06:19:17;3.50;99.90
15156;DHT22;7678;50.058;8.306;2022-12-07T06:21:45;3.60;99.90
15156;DHT22;7678;50.058;8.306;2022-12-07T06:24:14;3.50;99.90
15156;DHT22;7678;50.058;8.306;2022-12-07T06:26:44;3.50;99.90
15156;DHT22;7678;50.058;8.306;2022-12-07T06:29:12;3.50;99.90
15156;DHT22;7678;50.058;8.306;2022-12-07T06:31:40;3.40;99.90
15156;DHT22;7678;50.058;8.306;2022-12-07T06:34:11;3.40;99.90
15156;DHT22;7678;50.058;8.306;2022-12-07T06:36:40;3.30;99.90
15156;DHT22;7678;50.058;8.306;2022-12-07T06:39:08;3.30;99.90
15156;DHT22;7678;50.058;8.306;2022-12-07T06:41:36;3.40;99.90
15156;DHT22;7678;50.058;8.306;2022-12-07T06:44:06;3.30;99.90
15156;DHT22;7678;50.058;8.306;2022-12-07T06:46:34;3.30;99.90
15156;DHT22;7678;50.058;8.306;2022-12-07T06:49:03;3.20;99.90
15156;DHT22;7678;50.058;8.306;2022-12-07T06:51:31;3.20;99.90
15156;DHT22;7678;50.058;8.306;2022-12-07T06:54:00;3.10;99.90
15156;DHT22;7678;50.058;8.306;2022-12-07T06:56:28;3.10;99.90
15156;DHT22;7678;50.058;8.306;2022-12-07T06:58:56;3.00;99.90
15156;DHT22;7678;50.058;8.306;2022-12-07T07:01:25;3.00;99.90
15156;DHT22;7678;50.058;8.306;2022-12-07T07:03:53;3.00;99.90
15156;DHT22;7678;50.058;8.306;2022-12-07T07:06:21;3.10;99.90
15156;DHT22;7678;50.058;8.306;2022-12-07T07:08:49;3.20;99.90
15156;DHT22;7678;50.058;8.306;2022-12-07T07:11:18;3.20;99.90
15156;DHT22;7678;50.058;8.306;2022-12-07T07:13:46;3.30;99.90
15156;DHT22;7678;50.058;8.306;2022-12-07T07:16:14;3.30;99.90
15156;DHT22;7678;50.058;8.306;2022-12-07T07:18:43;3.30;99.90
15156;DHT22;7678;50.058;8.306;2022-12-07T07:21:11;3.30;99.90
15156;DHT22;7678;50.058;8.306;2022-12-07T07:23:39;3.30;99.90
15156;DHT22;7678;50.058;8.306;2022-12-07T07:26:07;3.30;99.90
15156;DHT22;7678;50.058;8.306;2022-12-07T07:28:35;3.20;99.90
15156;DHT22;7678;50.058;8.306;2022-12-07T07:31:03;3.20;99.90
15156;DHT22;7678;50.058;8.306;2022-12-07T07:33:36;3.20;99.90
15156;DHT22;7678;50.058;8.306;2022-12-07T07:36:06;3.10;99.90
15156;DHT22;7678;50.058;8.306;2022-12-07T07:38:34;3.20;99.90
15156;DHT22;7678;50.058;8.306;2022-12-07T07:41:02;3.20;99.90
15156;DHT22;7678;50.058;8.306;2022-12-07T07:43:33;3.10;99.90
15156;DHT22;7678;50.058;8.306;2022-12-07T07:46:01;3.00;99.90
15156;DHT22;7678;50.058;8.306;2022-12-07T07:48:29;2.90;99.90
15156;DHT22;7678;50.058;8.306;2022-12-07T07:50:56;2.90;99.90
15156;DHT22;7678;50.058;8.306;2022-12-07T07:53:26;2.90;99.90
15156;DHT22;7678;50.058;8.306;2022-12-07T07:55:54;2.90;99.90
15156;DHT22;7678;50.058;8.306;2022-12-07T07:58:22;2.90;99.90
15156;DHT22;7678;50.058;8.306;2022-12-07T08:00:51;2.90;99.90
15156;DHT22;7678;50.058;8.306;2022-12-07T08:03:19;2.90;99.90
15156;DHT22;7678;50.058;8.306;2022-12-07T08:05:47;3.00;99.90
15156;DHT22;7678;50.058;8.306;2022-12-07T08:08:15;3.10;99.90
15156;DHT22;7678;50.058;8.306;2022-12-07T08:10:57;3.20;99.90
15156;DHT22;7678;50.058;8.306;2022-12-07T08:13:27;3.30;99.90
15156;DHT22;7678;50.058;8.306;2022-12-07T08:15:57;3.30;99.90
15156;DHT22;7678;50.058;8.306;2022-12-07T08:18:26;3.40;99.90
15156;DHT22;7678;50.058;8.306;2022-12-07T08:20:59;3.40;99.90
15156;DHT22;7678;50.058;8.306;2022-12-07T08:23:28;3.30;99.90
15156;DHT22;7678;50.058;8.306;2022-12-07T08:26:08;3.20;99.90
15156;DHT22;7678;50.058;8.306;2022-12-07T08:28:36;3.10;99.90
15156;DHT22;7678;50.058;8.306;2022-12-07T08:31:07;3.20;99.90
15156;DHT22;7678;50.058;8.306;2022-12-07T08:33:41;3.10;99.90
15156;DHT22;7678;50.058;8.306;2022-12-07T08:36:11;3.10;99.90
15156;DHT22;7678;50.058;8.306;2022-12-07T08:38:41;3.10;99.90
15156;DHT22;7678;50.058;8.306;2022-12-07T08:41:30;3.20;99.90
15156;DHT22;7678;50.058;8.306;2022-12-07T08:43:58;3.20;99.90
15156;DHT22;7678;50.058;8.306;2022-12-07T08:46:30;3.30;99.90
15156;DHT22;7678;50.058;8.306;2022-12-07T08:49:03;3.50;99.90
15156;DHT22;7678;50.058;8.306;2022-12-07T08:51:32;3.60;99.90
15156;DHT22;7678;50.058;8.306;2022-12-07T08:54:03;3.80;99.90
15156;DHT22;7678;50.058;8.306;2022-12-07T08:56:33;3.90;99.90
15156;DHT22;7678;50.058;8.306;2022-12-07T08:59:19;4.00;99.90
15156;DHT22;7678;50.058;8.306;2022-12-07T09:01:49;4.00;99.90
15156;DHT22;7678;50.058;8.306;2022-12-07T09:04:23;4.00;99.90
15156;DHT22;7678;50.058;8.306;2022-12-07T09:06:51;4.00;99.90
15156;DHT22;7678;50.058;8.306;2022-12-07T09:09:19;4.00;99.90
15156;DHT22;7678;50.058;8.306;2022-12-07T09:11:47;4.10;99.90
15156;DHT22;7678;50.058;8.306;2022-12-07T09:14:19;4.10;99.90
15156;DHT22;7678;50.058;8.306;2022-12-07T09:16:48;4.20;99.90
15156;DHT22;7678;50.058;8.306;2022-12-07T09:19:16;4.20;99.90
15156;DHT22;7678;50.058;8.306;2022-12-07T09:21:47;4.40;99.90
15156;DHT22;7678;50.058;8.306;2022-12-07T09:24:15;4.40;99.90
15156;DHT22;7678;50.058;8.306;2022-12-07T09:26:44;4.40;99.90
15156;DHT22;7678;50.058;8.306;2022-12-07T09:29:12;4.60;99.90
15156;DHT22;7678;50.058;8.306;2022-12-07T09:31:42;4.60;99.90
15156;DHT22;7678;50.058;8.306;2022-12-07T09:34:10;4.70;99.90
15156;DHT22;7678;50.058;8.306;2022-12-07T09:36:38;4.80;99.90
15156;DHT22;7678;50.058;8.306;2022-12-07T09:39:06;4.80;99.90
15156;DHT22;7678;50.058;8.306;2022-12-07T09:41:37;4.90;99.90
15156;DHT22;7678;50.058;8.306;2022-12-07T09:44:10;5.00;99.90
15156;DHT22;7678;50.058;8.306;2022-12-07T09:46:41;5.10;99.90
15156;DHT22;7678;50.058;8.306;2022-12-07T09:49:12;5.00;99.90
15156;DHT22;7678;50.058;8.306;2022-12-07T09:51:42;4.90;99.90
15156;DHT22;7678;50.058;8.306;2022-12-07T09:54:15;5.20;99.90
15156;DHT22;7678;50.058;8.306;2022-12-07T09:56:46;5.40;99.90
15156;DHT22;7678;50.058;8.306;2022-12-07T09:59:17;5.50;99.90
15156;DHT22;7678;50.058;8.306;2022-12-07T10:01:48;5.50;99.90
15156;DHT22;7678;50.058;8.306;2022-12-07T10:04:19;5.40;99.90
15156;DHT22;7678;50.058;8.306;2022-12-07T10:06:48;5.40;99.90
15156;DHT22;7678;50.058;8.306;2022-12-07T10:09:20;5.20;99.90
15156;DHT22;7678;50.058;8.306;2022-12-07T10:12:05;5.30;99.90
15156;DHT22;7678;50.058;8.306;2022-12-07T10:14:35;5.30;99.90
15156;DHT22;7678;50.058;8.306;2022-12-07T10:17:34;5.20;99.90
15156;DHT22;7678;50.058;8.306;2022-12-07T10:20:24;5.30;99.90
15156;DHT22;7678;50.058;8.306;2022-12-07T10:22:58;5.20;99.90
15156;DHT22;7678;50.058;8.306;2022-12-07T10:25:28;5.30;99.90
15156;DHT22;7678;50.058;8.306;2022-12-07T10:28:00;5.30;99.90
15156;DHT22;7678;50.058;8.306;2022-12-07T10:30:30;5.10;99.90
15156;DHT22;7678;50.058;8.306;2022-12-07T10:33:00;5.20;99.90
15156;DHT22;7678;50.058;8.306;2022-12-07T10:35:30;5.00;99.90
15156;DHT22;7678;50.058;8.306;2022-12-07T10:37:59;5.30;99.90
15156;DHT22;7678;50.058;8.306;2022-12-07T10:40:30;5.50;99.90
15156;DHT22;7678;50.058;8.306;2022-12-07T10:43:17;5.50;99.90
15156;DHT22;7678;50.058;8.306;2022-12-07T10:46:17;5.50;99.90
15156;DHT22;7678;50.058;8.306;2022-12-07T10:48:55;5.70;99.90
15156;DHT22;7678;50.058;8.306;2022-12-07T10:51:30;5.90;99.90
15156;DHT22;7678;50.058;8.306;2022-12-07T10:54:12;5.80;99.90
15156;DHT22;7678;50.058;8.306;2022-12-07T10:56:52;6.00;99.90
15156;DHT22;7678;50.058;8.306;2022-12-07T10:59:47;6.20;99.90
15156;DHT22;7678;50.058;8.306;2022-12-07T11:05:29;6.20;99.90
15156;DHT22;7678;50.058;8.306;2022-12-07T11:08:05;6.20;99.90
15156;DHT22;7678;50.058;8.306;2022-12-07T11:10:41;6.20;99.90
15156;DHT22;7678;50.058;8.306;2022-12-07T11:13:21;6.30;99.90
15156;DHT22;7678;50.058;8.306;2022-12-07T11:16:12;6.00;99.90
15156;DHT22;7678;50.058;8.306;2022-12-07T11:19:05;5.90;99.90
15156;DHT22;7678;50.058;8.306;2022-12-07T11:21:41;6.20;99.90
15156;DHT22;7678;50.058;8.306;2022-12-07T11:24:15;6.30;99.90
15156;DHT22;7678;50.058;8.306;2022-12-07T11:26:59;6.60;99.90
15156;DHT22;7678;50.058;8.306;2022-12-07T11:32:25;6.60;99.90
15156;DHT22;7678;50.058;8.306;2022-12-07T11:35:05;6.50;99.90
15156;DHT22;7678;50.058;8.306;2022-12-07T11:37:38;6.40;99.90
15156;DHT22;7678;50.058;8.306;2022-12-07T11:40:17;6.30;99.90
15156;DHT22;7678;50.058;8.306;2022-12-07T11:42:51;6.30;99.90
15156;DHT22;7678;50.058;8.306;2022-12-07T11:45:23;6.20;99.90
15156;DHT22;7678;50.058;8.306;2022-12-07T11:47:54;6.10;99.90
15156;DHT22;7678;50.058;8.306;2022-12-07T11:50:27;6.00;99.90
15156;DHT22;7678;50.058;8.306;2022-12-07T11:53:02;5.90;99.90
15156;DHT22;7678;50.058;8.306;2022-12-07T11:55:41;6.10;99.90
15156;DHT22;7678;50.058;8.306;2022-12-07T11:58:19;6.20;99.90
15156;DHT22;7678;50.058;8.306;2022-12-07T12:00:49;6.00;99.90
15156;DHT22;7678;50.058;8.306;2022-12-07T12:03:25;5.90;99.90
15156;DHT22;7678;50.058;8.306;2022-12-07T12:05:57;5.90;99.90
15156;DHT22;7678;50.058;8.306;2022-12-07T12:08:29;5.80;99.90
15156;DHT22;7678;50.058;8.306;2022-12-07T12:11:32;5.60;99.90
15156;DHT22;7678;50.058;8.306;2022-12-07T12:14:24;5.40;99.90
15156;DHT22;7678;50.058;8.306;2022-12-07T12:17:26;5.40;99.90
15156;DHT22;7678;50.058;8.306;2022-12-07T12:20:01;5.40;99.90
15156;DHT22;7678;50.058;8.306;2022-12-07T12:22:36;5.30;99.90
15156;DHT22;7678;50.058;8.306;2022-12-07T12:25:12;5.30;99.90
15156;DHT22;7678;50.058;8.306;2022-12-07T12:27:46;5.40;99.90
15156;DHT22;7678;50.058;8.306;2022-12-07T12:30:30;5.60;99.90
15156;DHT22;7678;50.058;8.306;2022-12-07T12:33:04;6.00;99.90
15156;DHT22;7678;50.058;8.306;2022-12-07T12:35:36;6.20;99.90
15156;DHT22;7678;50.058;8.306;2022-12-07T12:38:28;6.30;99.90
15156;DHT22;7678;50.058;8.306;2022-12-07T12:41:08;6.50;99.90
15156;DHT22;7678;50.058;8.306;2022-12-07T12:45:24;6.30;99.90
15156;DHT22;7678;50.058;8.306;2022-12-07T12:48:28;6.10;99.90
15156;DHT22;7678;50.058;8.306;2022-12-07T12:54:59;5.70;99.90
15156;DHT22;7678;50.058;8.306;2022-12-07T12:57:32;5.90;99.90
15156;DHT22;7678;50.058;8.306;2022-12-07T13:00:16;6.10;99.90
15156;DHT22;7678;50.058;8.306;2022-12-07T13:02:49;6.20;99.90
15156;DHT22;7678;50.058;8.306;2022-12-07T13:05:22;6.20;99.90
15156;DHT22;7678;50.058;8.306;2022-12-07T13:07:57;5.90;99.90
15156;DHT22;7678;50.058;8.306;2022-12-07T13:10:40;5.70;99.90
15156;DHT22;7678;50.058;8.306;2022-12-07T13:13:30;5.20;99.90
15156;DHT22;7678;50.058;8.306;2022-12-07T13:23:59;4.90;99.90
15156;DHT22;7678;50.058;8.306;2022-12-07T13:26:36;4.90;99.90
15156;DHT22;7678;50.058;8.306;2022-12-07T13:29:11;5.00;99.90
15156;DHT22;7678;50.058;8.306;2022-12-07T13:31:41;5.00;99.90
15156;DHT22;7678;50.058;8.306;2022-12-07T13:34:30;5.00;99.90
15156;DHT22;7678;50.058;8.306;2022-12-07T13:37:00;5.20;99.90
15156;DHT22;7678;50.058;8.306;2022-12-07T13:39:29;5.20;99.90
15156;DHT22;7678;50.058;8.306;2022-12-07T13:42:44;5.30;99.90
15156;DHT22;7678;50.058;8.306;2022-12-07T13:45:38;5.30;99.90
15156;DHT22;7678;50.058;8.306;2022-12-07T13:48:24;5.10;99.90
15156;DHT22;7678;50.058;8.306;2022-12-07T13:51:38;5.10;99.90
15156;DHT22;7678;50.058;8.306;2022-12-07T13:55:15;5.00;99.90
15156;DHT22;7678;50.058;8.306;2022-12-07T13:57:59;4.90;99.90
15156;DHT22;7678;50.058;8.306;2022-12-07T14:00:49;4.90;99.90
15156;DHT22;7678;50.058;8.306;2022-12-07T14:03:49;4.90;99.90
15156;DHT22;7678;50.058;8.306;2022-12-07T14:06:21;4.80;99.90
15156;DHT22;7678;50.058;8.306;2022-12-07T14:09:16;4.60;99.90
15156;DHT22;7678;50.058;8.306;2022-12-07T14:12:19;4.40;99.90
15156;DHT22;7678;50.058;8.306;2022-12-07T14:15:21;4.30;99.90
15156;DHT22;7678;50.058;8.306;2022-12-07T14:17:54;4.40;99.90
15156;DHT22;7678;50.058;8.306;2022-12-07T14:20:31;4.30;99.90
15156;DHT22;7678;50.058;8.306;2022-12-07T14:23:04;4.30;99.90
15156;DHT22;7678;50.058;8.306;2022-12-07T14:25:45;4.30;99.90
15156;DHT22;7678;50.058;8.306;2022-12-07T14:28:26;4.20;99.90
15156;DHT22;7678;50.058;8.306;2022-12-07T14:30:54;4.20;99.90
15156;DHT22;7678;50.058;8.306;2022-12-07T14:34:09;4.20;99.90
15156;DHT22;7678;50.058;8.306;2022-12-07T14:37:07;4.20;99.90
15156;DHT22;7678;50.058;8.306;2022-12-07T14:39:35;4.20;99.90
15156;DHT22;7678;50.058;8.306;2022-12-07T14:42:38;4.20;99.90
15156;DHT22;7678;50.058;8.306;2022-12-07T14:48:35;4.20;99.90
15156;DHT22;7678;50.058;8.306;2022-12-07T14:51:50;4.20;99.90
15156;DHT22;7678;50.058;8.306;2022-12-07T14:55:03;4.20;99.90
15156;DHT22;7678;50.058;8.306;2022-12-07T14:57:33;4.20;99.90
15156;DHT22;7678;50.058;8.306;2022-12-07T15:00:02;4.20;99.90
15156;DHT22;7678;50.058;8.306;2022-12-07T15:02:30;4.10;99.90
15156;DHT22;7678;50.058;8.306;2022-12-07T15:04:59;4.10;99.90
15156;DHT22;7678;50.058;8.306;2022-12-07T15:07:28;4.10;99.90
15156;DHT22;7678;50.058;8.306;2022-12-07T15:09:56;4.10;99.90
15156;DHT22;7678;50.058;8.306;2022-12-07T15:12:24;4.00;99.90
15156;DHT22;7678;50.058;8.306;2022-12-07T15:14:54;4.10;99.90
15156;DHT22;7678;50.058;8.306;2022-12-07T15:17:22;4.20;99.90
15156;DHT22;7678;50.058;8.306;2022-12-07T15:19:59;4.20;99.90
15156;DHT22;7678;50.058;8.306;2022-12-07T15:22:34;4.20;99.90
15156;DHT22;7678;50.058;8.306;2022-12-07T15:25:34;4.20;99.90
15156;DHT22;7678;50.058;8.306;2022-12-07T15:28:02;4.20;99.90
15156;DHT22;7678;50.058;8.306;2022-12-07T15:30:30;4.30;99.90
15156;DHT22;7678;50.058;8.306;2022-12-07T15:33:02;4.30;99.90
15156;DHT22;7678;50.058;8.306;2022-12-07T15:35:48;4.30;99.90
15156;DHT22;7678;50.058;8.306;2022-12-07T15:38:26;4.40;99.90
15156;DHT22;7678;50.058;8.306;2022-12-07T15:41:17;4.40;99.90
15156;DHT22;7678;50.058;8.306;2022-12-07T15:43:45;4.30;99.90
15156;DHT22;7678;50.058;8.306;2022-12-07T15:46:31;4.30;99.90
15156;DHT22;7678;50.058;8.306;2022-12-07T15:48:59;4.30;99.90
15156;DHT22;7678;50.058;8.306;2022-12-07T15:51:29;4.20;99.90
15156;DHT22;7678;50.058;8.306;2022-12-07T15:54:08;4.10;99.90
15156;DHT22;7678;50.058;8.306;2022-12-07T15:56:57;4.10;99.90
15156;DHT22;7678;50.058;8.306;2022-12-07T15:59:27;4.10;99.90
15156;DHT22;7678;50.058;8.306;2022-12-07T16:01:56;4.00;99.90
15156;DHT22;7678;50.058;8.306;2022-12-07T16:04:27;4.00;99.90
15156;DHT22;7678;50.058;8.306;2022-12-07T16:06:56;4.00;99.90
15156;DHT22;7678;50.058;8.306;2022-12-07T16:09:24;4.00;99.90
15156;DHT22;7678;50.058;8.306;2022-12-07T16:11:53;4.00;99.90
15156;DHT22;7678;50.058;8.306;2022-12-07T16:14:21;4.00;99.90
15156;DHT22;7678;50.058;8.306;2022-12-07T16:16:49;3.90;99.90
15156;DHT22;7678;50.058;8.306;2022-12-07T16:19:17;3.90;99.90
15156;DHT22;7678;50.058;8.306;2022-12-07T16:21:45;3.90;99.90
15156;DHT22;7678;50.058;8.306;2022-12-07T16:24:14;3.80;99.90
15156;DHT22;7678;50.058;8.306;2022-12-07T16:26:43;3.80;99.90
15156;DHT22;7678;50.058;8.306;2022-12-07T16:29:16;3.80;99.90
15156;DHT22;7678;50.058;8.306;2022-12-07T16:31:45;3.80;99.90
15156;DHT22;7678;50.058;8.306;2022-12-07T16:34:13;3.80;99.90
15156;DHT22;7678;50.058;8.306;2022-12-07T16:36:49;3.70;99.90
15156;DHT22;7678;50.058;8.306;2022-12-07T16:39:32;3.70;99.90
15156;DHT22;7678;50.058;8.306;2022-12-07T16:42:00;3.60;99.90
15156;DHT22;7678;50.058;8.306;2022-12-07T16:44:28;3.50;99.90
15156;DHT22;7678;50.058;8.306;2022-12-07T16:46:57;3.50;99.90
15156;DHT22;7678;50.058;8.306;2022-12-07T16:49:25;3.40;99.90
15156;DHT22;7678;50.058;8.306;2022-12-07T16:51:53;3.40;99.90
15156;DHT22;7678;50.058;8.306;2022-12-07T16:54:42;3.40;99.90
15156;DHT22;7678;50.058;8.306;2022-12-07T16:57:10;3.40;99.90
15156;DHT22;7678;50.058;8.306;2022-12-07T16:59:47;3.40;99.90
15156;DHT22;7678;50.058;8.306;2022-12-07T17:02:15;3.40;99.90
15156;DHT22;7678;50.058;8.306;2022-12-07T17:04:43;3.40;99.90
15156;DHT22;7678;50.058;8.306;2022-12-07T17:07:11;3.40;99.90
15156;DHT22;7678;50.058;8.306;2022-12-07T17:09:39;3.40;99.90
15156;DHT22;7678;50.058;8.306;2022-12-07T17:12:08;3.40;99.90